Aviation Digital Data Service (ADDS)

Output produced by METARs form (1318 UTC 24 August 2019)
found at http://www.aviationweather.gov/metar/data/
 
METAR text: NFFN 241300Z 12006KT 9999 SCT028 BKN050 21/18 Q1014 NOSIG
Conditions at: NFFN (NANDI FIJI , FJ) observed 1300 UTC 24 August 2019
Temperature: 21.0°C (70°F)
Dewpoint: 18.0°C (64°F) [RH = 83%]
Pressure (altimeter): 29.94 inches Hg (1014.0 mb)
Winds: from the ESE (120 degrees) at 7 MPH (6 knots; 3.1 m/s)
Visibility: 6 or more miles (10+ km)
Ceiling: 5000 feet AGL
Clouds: scattered clouds at 2800 feet AGL
broken clouds at 5000 feet AGL
Weather: no significant weather observed at this time

METAR text: NFFN 241200Z 11006KT 9999 SCT028 BKN050 22/17 Q1014 NOSIG
Conditions at: NFFN (NANDI FIJI , FJ) observed 1200 UTC 24 August 2019
Temperature: 22.0°C (72°F)
Dewpoint: 17.0°C (63°F) [RH = 73%]
Pressure (altimeter): 29.94 inches Hg (1014.0 mb)
Winds: from the ESE (110 degrees) at 7 MPH (6 knots; 3.1 m/s)
Visibility: 6 or more miles (10+ km)
Ceiling: 5000 feet AGL
Clouds: scattered clouds at 2800 feet AGL
broken clouds at 5000 feet AGL
Weather: no significant weather observed at this time

METAR text: NFFN 241100Z 11004KT 9999 SCT030 SCT050 22/18 Q1014 NOSIG
Conditions at: NFFN (NANDI FIJI , FJ) observed 1100 UTC 24 August 2019
Temperature: 22.0°C (72°F)
Dewpoint: 18.0°C (64°F) [RH = 78%]
Pressure (altimeter): 29.94 inches Hg (1014.0 mb)
Winds: from the ESE (110 degrees) at 5 MPH (4 knots; 2.1 m/s)
Visibility: 6 or more miles (10+ km)
Ceiling: at least 12,000 feet AGL
Clouds: scattered clouds at 3000 feet AGL
scattered clouds at 5000 feet AGL
Weather: no significant weather observed at this time

METAR text: NFFN 241000Z 12006KT 9999 SCT030 SCT050 22/20 Q1015 NOSIG
Conditions at: NFFN (NANDI FIJI , FJ) observed 1000 UTC 24 August 2019
Temperature: 22.0°C (72°F)
Dewpoint: 20.0°C (68°F) [RH = 88%]
Pressure (altimeter): 29.97 inches Hg (1015.0 mb)
Winds: from the ESE (120 degrees) at 7 MPH (6 knots; 3.1 m/s)
Visibility: 6 or more miles (10+ km)
Ceiling: at least 12,000 feet AGL
Clouds: scattered clouds at 3000 feet AGL
scattered clouds at 5000 feet AGL
Weather: no significant weather observed at this time

METAR text: NFFN 240900Z 12005KT 9999 SCT030 SCT050 22/19 Q1014 NOSIG
Conditions at: NFFN (NANDI FIJI , FJ) observed 0900 UTC 24 August 2019
Temperature: 22.0°C (72°F)
Dewpoint: 19.0°C (66°F) [RH = 83%]
Pressure (altimeter): 29.94 inches Hg (1014.0 mb)
Winds: from the ESE (120 degrees) at 6 MPH (5 knots; 2.6 m/s)
Visibility: 6 or more miles (10+ km)
Ceiling: at least 12,000 feet AGL
Clouds: scattered clouds at 3000 feet AGL
scattered clouds at 5000 feet AGL
Weather: no significant weather observed at this time

METAR text: NFFN 240800Z 13007KT 9999 SCT030 BKN050 23/19 Q1014 NOSIG
Conditions at: NFFN (NANDI FIJI , FJ) observed 0800 UTC 24 August 2019
Temperature: 23.0°C (73°F)
Dewpoint: 19.0°C (66°F) [RH = 78%]
Pressure (altimeter): 29.94 inches Hg (1014.0 mb)
Winds: from the SE (130 degrees) at 8 MPH (7 knots; 3.6 m/s)
Visibility: 6 or more miles (10+ km)
Ceiling: 5000 feet AGL
Clouds: scattered clouds at 3000 feet AGL
broken clouds at 5000 feet AGL
Weather: no significant weather observed at this time

METAR text: NFFN 240700Z 13007KT 9999 SCT030 BKN050 23/16 Q1013 NOSIG
Conditions at: NFFN (NANDI FIJI , FJ) observed 0700 UTC 24 August 2019
Temperature: 23.0°C (73°F)
Dewpoint: 16.0°C (61°F) [RH = 65%]
Pressure (altimeter): 29.91 inches Hg (1013.0 mb)
Winds: from the SE (130 degrees) at 8 MPH (7 knots; 3.6 m/s)
Visibility: 6 or more miles (10+ km)
Ceiling: 5000 feet AGL
Clouds: scattered clouds at 3000 feet AGL
broken clouds at 5000 feet AGL
Weather: no significant weather observed at this time

METAR text: NFFN 240600Z 13008KT 9999 SCT030 BKN050 24/18 Q1013 NOSIG
Conditions at: NFFN (NANDI FIJI , FJ) observed 0600 UTC 24 August 2019
Temperature: 24.0°C (75°F)
Dewpoint: 18.0°C (64°F) [RH = 69%]
Pressure (altimeter): 29.91 inches Hg (1013.0 mb)
Winds: from the SE (130 degrees) at 9 MPH (8 knots; 4.1 m/s)
Visibility: 6 or more miles (10+ km)
Ceiling: 5000 feet AGL
Clouds: scattered clouds at 3000 feet AGL
broken clouds at 5000 feet AGL
Weather: no significant weather observed at this time

METAR text: NFFN 240500Z 14014KT 9999 SCT028 SCT048 BKN300 25/18 Q1012 NOSIG
Conditions at: NFFN (NANDI FIJI , FJ) observed 0500 UTC 24 August 2019
Temperature: 25.0°C (77°F)
Dewpoint: 18.0°C (64°F) [RH = 65%]
Pressure (altimeter): 29.88 inches Hg (1012.0 mb)
Winds: from the SE (140 degrees) at 16 MPH (14 knots; 7.2 m/s)
Visibility: 6 or more miles (10+ km)
Ceiling: 30000 feet AGL
Clouds: scattered clouds at 2800 feet AGL
scattered clouds at 4800 feet AGL
broken clouds at 30000 feet AGL
Weather: no significant weather observed at this time

METAR text: NFFN 240400Z 14014KT 9999 SCT028 SCT048 BKN300 26/17 Q1012 NOSIG
Conditions at: NFFN (NANDI FIJI , FJ) observed 0400 UTC 24 August 2019
Temperature: 26.0°C (79°F)
Dewpoint: 17.0°C (63°F) [RH = 58%]
Pressure (altimeter): 29.88 inches Hg (1012.0 mb)
Winds: from the SE (140 degrees) at 16 MPH (14 knots; 7.2 m/s)
Visibility: 6 or more miles (10+ km)
Ceiling: 30000 feet AGL
Clouds: scattered clouds at 2800 feet AGL
scattered clouds at 4800 feet AGL
broken clouds at 30000 feet AGL
Weather: no significant weather observed at this time

METAR text: NFFN 240300Z 14013KT 9999 SCT025 BKN046 26/19 Q1012 NOSIG
Conditions at: NFFN (NANDI FIJI , FJ) observed 0300 UTC 24 August 2019
Temperature: 26.0°C (79°F)
Dewpoint: 19.0°C (66°F) [RH = 65%]
Pressure (altimeter): 29.88 inches Hg (1012.0 mb)
Winds: from the SE (140 degrees) at 15 MPH (13 knots; 6.7 m/s)
Visibility: 6 or more miles (10+ km)
Ceiling: 4600 feet AGL
Clouds: scattered clouds at 2500 feet AGL
broken clouds at 4600 feet AGL
Weather: no significant weather observed at this time

METAR text: NFFN 240200Z 14012KT 9999 SCT024 BKN046 25/20 Q1012 NOSIG
Conditions at: NFFN (NANDI FIJI , FJ) observed 0200 UTC 24 August 2019
Temperature: 25.0°C (77°F)
Dewpoint: 20.0°C (68°F) [RH = 74%]
Pressure (altimeter): 29.88 inches Hg (1012.0 mb)
Winds: from the SE (140 degrees) at 14 MPH (12 knots; 6.2 m/s)
Visibility: 6 or more miles (10+ km)
Ceiling: 4600 feet AGL
Clouds: scattered clouds at 2400 feet AGL
broken clouds at 4600 feet AGL
Weather: no significant weather observed at this time

METAR text: NFFN 240100Z 14015KT 9999 SCT024 BKN046 26/21 Q1013 NOSIG
Conditions at: NFFN (NANDI FIJI , FJ) observed 0100 UTC 24 August 2019
Temperature: 26.0°C (79°F)
Dewpoint: 21.0°C (70°F) [RH = 74%]
Pressure (altimeter): 29.91 inches Hg (1013.0 mb)
Winds: from the SE (140 degrees) at 17 MPH (15 knots; 7.7 m/s)
Visibility: 6 or more miles (10+ km)
Ceiling: 4600 feet AGL
Clouds: scattered clouds at 2400 feet AGL
broken clouds at 4600 feet AGL
Weather: no significant weather observed at this time

METAR text: NFFN 240000Z 15012KT 9999 BKN025 BKN046 26/21 Q1013 NOSIG
Conditions at: NFFN (NANDI FIJI , FJ) observed 0000 UTC 24 August 2019
Temperature: 26.0°C (79°F)
Dewpoint: 21.0°C (70°F) [RH = 74%]
Pressure (altimeter): 29.91 inches Hg (1013.0 mb)
Winds: from the SSE (150 degrees) at 14 MPH (12 knots; 6.2 m/s)
Visibility: 6 or more miles (10+ km)
Ceiling: 2500 feet AGL
Clouds: broken clouds at 2500 feet AGL
broken clouds at 4600 feet AGL
Weather: no significant weather observed at this time

METAR text: NFFN 232300Z 14012KT 110V170 9999 SCT025 BKN046 26/21 Q1014 NOSIG
Conditions at: NFFN (NANDI FIJI , FJ) observed 2300 UTC 23 August 2019
Temperature: 26.0°C (79°F)
Dewpoint: 21.0°C (70°F) [RH = 74%]
Pressure (altimeter): 29.94 inches Hg (1014.0 mb)
Winds: from the SE (140 degrees) at 14 MPH (12 knots; 6.2 m/s)
Visibility: 6 or more miles (10+ km)
Ceiling: 4600 feet AGL
Clouds: scattered clouds at 2500 feet AGL
broken clouds at 4600 feet AGL
Weather: no significant weather observed at this time

METAR text: NFFN 232200Z 15012KT 9999 FEW005 SCT026TCU BKN046 26/21 Q1015 NOSIG
Conditions at: NFFN (NANDI FIJI , FJ) observed 2200 UTC 23 August 2019
Temperature: 26.0°C (79°F)
Dewpoint: 21.0°C (70°F) [RH = 74%]
Pressure (altimeter): 29.97 inches Hg (1015.0 mb)
Winds: from the SSE (150 degrees) at 14 MPH (12 knots; 6.2 m/s)
Visibility: 6 or more miles (10+ km)
Ceiling: 4600 feet AGL
Clouds: few clouds at 500 feet AGL
scattered clouds at 2600 feet AGL
broken clouds at 4600 feet AGL
Weather: no significant weather observed at this time

METAR text: NFFN 232100Z 14006KT 9999 VCSH FEW005 SCT025TCU BKN046 24/22 Q1015 NOSIG
Conditions at: NFFN (NANDI FIJI , FJ) observed 2100 UTC 23 August 2019
Temperature: 24.0°C (75°F)
Dewpoint: 22.0°C (72°F) [RH = 89%]
Pressure (altimeter): 29.97 inches Hg (1015.0 mb)
Winds: from the SE (140 degrees) at 7 MPH (6 knots; 3.1 m/s)
Visibility: 6 or more miles (10+ km)
Ceiling: 4600 feet AGL
Clouds: few clouds at 500 feet AGL
scattered clouds at 2500 feet AGL
broken clouds at 4600 feet AGL
Weather: VCSH  (showers in vicinity)

METAR text: NFFN 232000Z 16005KT 9999 VCSH FEW005 SCT024TCU BKN045 23/22 Q1015 NOSIG
Conditions at: NFFN (NANDI FIJI , FJ) observed 2000 UTC 23 August 2019
Temperature: 23.0°C (73°F)
Dewpoint: 22.0°C (72°F) [RH = 94%]
Pressure (altimeter): 29.97 inches Hg (1015.0 mb)
Winds: from the SSE (160 degrees) at 6 MPH (5 knots; 2.6 m/s)
Visibility: 6 or more miles (10+ km)
Ceiling: 4500 feet AGL
Clouds: few clouds at 500 feet AGL
scattered clouds at 2400 feet AGL
broken clouds at 4500 feet AGL
Weather: VCSH  (showers in vicinity)

METAR text: NFFN 231900Z 16006KT 9999 FEW005 SCT024TCU BKN045 23/21 Q1014 TEMPO 5000 SHRA
Conditions at: NFFN (NANDI FIJI , FJ) observed 1900 UTC 23 August 2019
Temperature: 23.0°C (73°F)
Dewpoint: 21.0°C (70°F) [RH = 89%]
Pressure (altimeter): 29.94 inches Hg (1014.0 mb)
Winds: from the SSE (160 degrees) at 7 MPH (6 knots; 3.1 m/s)
Visibility: 6 or more miles (10+ km)
Ceiling: 4500 feet AGL
Clouds: few clouds at 500 feet AGL
scattered clouds at 2400 feet AGL
broken clouds at 4500 feet AGL
Weather: no significant weather observed at this time

METAR text: NFFN 231800Z 17010KT 9999 FEW003 SCT024TCU BKN045 23/21 Q1012 TEMPO 5000 SHRA
Conditions at: NFFN (NANDI FIJI , FJ) observed 1800 UTC 23 August 2019
Temperature: 23.0°C (73°F)
Dewpoint: 21.0°C (70°F) [RH = 89%]
Pressure (altimeter): 29.88 inches Hg (1012.0 mb)
Winds: from the S (170 degrees) at 12 MPH (10 knots; 5.1 m/s)
Visibility: 6 or more miles (10+ km)
Ceiling: 4500 feet AGL
Clouds: few clouds at 300 feet AGL
scattered clouds at 2400 feet AGL
broken clouds at 4500 feet AGL
Weather: no significant weather observed at this time

METAR text: NFFN 231700Z 19003KT 9999 FEW003 SCT024TCU BKN045 23/23 Q1012 TEMPO 5000 SHRA
Conditions at: NFFN (NANDI FIJI , FJ) observed 1700 UTC 23 August 2019
Temperature: 23.0°C (73°F)
Dewpoint: 23.0°C (73°F) [RH = 100%]
Pressure (altimeter): 29.88 inches Hg (1012.0 mb)
Winds: from the S (190 degrees) at 3 MPH (3 knots; 1.5 m/s)
Visibility: 6 or more miles (10+ km)
Ceiling: 4500 feet AGL
Clouds: few clouds at 300 feet AGL
scattered clouds at 2400 feet AGL
broken clouds at 4500 feet AGL
Weather: no significant weather observed at this time

METAR text: NFFN 231600Z 15006KT 9999 SCT024TCU BKN045 23/23 Q1012 TEMPO 5000 SHRA
Conditions at: NFFN (NANDI FIJI , FJ) observed 1600 UTC 23 August 2019
Temperature: 23.0°C (73°F)
Dewpoint: 23.0°C (73°F) [RH = 100%]
Pressure (altimeter): 29.88 inches Hg (1012.0 mb)
Winds: from the SSE (150 degrees) at 7 MPH (6 knots; 3.1 m/s)
Visibility: 6 or more miles (10+ km)
Ceiling: 4500 feet AGL
Clouds: scattered clouds at 2400 feet AGL
broken clouds at 4500 feet AGL
Weather: no significant weather observed at this time

METAR text: NFFN 231500Z 08004KT 8000 -RA FEW018CB SCT020TCU BKN040 23/23 Q1012 TEMPO 1600/1700 5000 SHRA
Conditions at: NFFN (NANDI FIJI , FJ) observed 1500 UTC 23 August 2019
Temperature: 23.0°C (73°F)
Dewpoint: 23.0°C (73°F) [RH = 100%]
Pressure (altimeter): 29.88 inches Hg (1012.0 mb)
Winds: from the E (80 degrees) at 5 MPH (4 knots; 2.1 m/s)
Visibility: 5 miles ( 8 km)
Ceiling: 4000 feet AGL
Clouds: few clouds at 1800 feet AGL
scattered clouds at 2000 feet AGL
broken clouds at 4000 feet AGL
Weather: -RA  (light rain)

METAR text: NFFN 231400Z 03007KT 8000 RA FEW018CB SCT020TCU BKN040 23/23 Q1013 FM1430 33006KT 9999 -RA SCT017 BKN040 TEMPO 5000 SHRA
Conditions at: NFFN (NANDI FIJI , FJ) observed 1400 UTC 23 August 2019
Temperature: 23.0°C (73°F)
Dewpoint: 23.0°C (73°F) [RH = 100%]
Pressure (altimeter): 29.91 inches Hg (1013.0 mb)
Winds: from the NNE (30 degrees) at 8 MPH (7 knots; 3.6 m/s)
Visibility: 5 miles ( 8 km)
Ceiling: 4000 feet AGL
Clouds: few clouds at 1800 feet AGL
scattered clouds at 2000 feet AGL
broken clouds at 4000 feet AGL
Weather: RA  (moderate rain)

METAR text: NFFN 231330Z 03006KT 8000 -RA FEW018CB SCT020TCU BKN040 23/23 Q1013 FM1430 33006KT 9999 -RA SCT017 BKN040 TEMPO 5000 SHRA
Conditions at: NFFN (NANDI FIJI , FJ) observed 1330 UTC 23 August 2019
Temperature: 23.0°C (73°F)
Dewpoint: 23.0°C (73°F) [RH = 100%]
Pressure (altimeter): 29.91 inches Hg (1013.0 mb)
Winds: from the NNE (30 degrees) at 7 MPH (6 knots; 3.1 m/s)
Visibility: 5 miles ( 8 km)
Ceiling: 4000 feet AGL
Clouds: few clouds at 1800 feet AGL
scattered clouds at 2000 feet AGL
broken clouds at 4000 feet AGL
Weather: -RA  (light rain)

METAR text: NFFN 231300Z 14008KT 3000 RA FEW018CB SCT020TCU BKN040 23/23 Q1013 FM1400 15008KT 4000 TSRA BKN015 FEW018CB
Conditions at: NFFN (NANDI FIJI , FJ) observed 1300 UTC 23 August 2019
Temperature: 23.0°C (73°F)
Dewpoint: 23.0°C (73°F) [RH = 100%]
Pressure (altimeter): 29.91 inches Hg (1013.0 mb)
Winds: from the SE (140 degrees) at 9 MPH (8 knots; 4.1 m/s)
Visibility: 1.86 miles (2.99 km)
Ceiling: 4000 feet AGL
Clouds: few clouds at 1800 feet AGL
scattered clouds at 2000 feet AGL
broken clouds at 4000 feet AGL
Weather: RA  (moderate rain)

METAR text: NFFN 231200Z 20007KT 8000 -RA FEW018CB SCT025 BKN045 26/25 Q1012 TEMPO 4000 TSRA
Conditions at: NFFN (NANDI FIJI , FJ) observed 1200 UTC 23 August 2019
Temperature: 26.0°C (79°F)
Dewpoint: 25.0°C (77°F) [RH = 94%]
Pressure (altimeter): 29.88 inches Hg (1012.0 mb)
Winds: from the SSW (200 degrees) at 8 MPH (7 knots; 3.6 m/s)
Visibility: 5 miles ( 8 km)
Ceiling: 4500 feet AGL
Clouds: few clouds at 1800 feet AGL
scattered clouds at 2500 feet AGL
broken clouds at 4500 feet AGL
Weather: -RA  (light rain)

METAR text: NFFN 231140Z 29003KT 8000 RA FEW018CB SCT025 BKN045 26/25 Q1012 TEMPO 4000 TSRA
Conditions at: NFFN (NANDI FIJI , FJ) observed 1140 UTC 23 August 2019
Temperature: 26.0°C (79°F)
Dewpoint: 25.0°C (77°F) [RH = 94%]
Pressure (altimeter): 29.88 inches Hg (1012.0 mb)
Winds: from the WNW (290 degrees) at 3 MPH (3 knots; 1.5 m/s)
Visibility: 5 miles ( 8 km)
Ceiling: 4500 feet AGL
Clouds: few clouds at 1800 feet AGL
scattered clouds at 2500 feet AGL
broken clouds at 4500 feet AGL
Weather: RA  (moderate rain)

METAR text: NFFN 231100Z 32007KT 9999 SCT025TCU BKN046 25/24 Q1012 RESHRA TEMPO 4000 TSRA FEW018CB
Conditions at: NFFN (NANDI FIJI , FJ) observed 1100 UTC 23 August 2019
Temperature: 25.0°C (77°F)
Dewpoint: 24.0°C (75°F) [RH = 94%]
Pressure (altimeter): 29.88 inches Hg (1012.0 mb)
Winds: from the NW (320 degrees) at 8 MPH (7 knots; 3.6 m/s)
Visibility: 6 or more miles (10+ km)
Ceiling: 4600 feet AGL
Clouds: scattered clouds at 2500 feet AGL
broken clouds at 4600 feet AGL
Weather: no significant weather observed at this time

METAR text: NFFN 231000Z 34007KT 9999 SCT028 SCT048 27/24 Q1012 TEMPO 4000 TSRA FEW018CB
Conditions at: NFFN (NANDI FIJI , FJ) observed 1000 UTC 23 August 2019
Temperature: 27.0°C (81°F)
Dewpoint: 24.0°C (75°F) [RH = 84%]
Pressure (altimeter): 29.88 inches Hg (1012.0 mb)
Winds: from the NNW (340 degrees) at 8 MPH (7 knots; 3.6 m/s)
Visibility: 6 or more miles (10+ km)
Ceiling: at least 12,000 feet AGL
Clouds: scattered clouds at 2800 feet AGL
scattered clouds at 4800 feet AGL
Weather: no significant weather observed at this time

METAR text: NFFN 230900Z 02006KT 9999 SCT028 SCT048 27/23 Q1012 TEMPO 4000 TSRA FEW018CB
Conditions at: NFFN (NANDI FIJI , FJ) observed 0900 UTC 23 August 2019
Temperature: 27.0°C (81°F)
Dewpoint: 23.0°C (73°F) [RH = 79%]
Pressure (altimeter): 29.88 inches Hg (1012.0 mb)
Winds: from the NNE (20 degrees) at 7 MPH (6 knots; 3.1 m/s)
Visibility: 6 or more miles (10+ km)
Ceiling: at least 12,000 feet AGL
Clouds: scattered clouds at 2800 feet AGL
scattered clouds at 4800 feet AGL
Weather: no significant weather observed at this time

METAR text: NFFN 230800Z 36007KT 9999 SCT028 SCT048 27/23 Q1012 TEMPO 4000 TSRA FEW018CB
Conditions at: NFFN (NANDI FIJI , FJ) observed 0800 UTC 23 August 2019
Temperature: 27.0°C (81°F)
Dewpoint: 23.0°C (73°F) [RH = 79%]
Pressure (altimeter): 29.88 inches Hg (1012.0 mb)
Winds: from the N (360 degrees) at 8 MPH (7 knots; 3.6 m/s)
Visibility: 6 or more miles (10+ km)
Ceiling: at least 12,000 feet AGL
Clouds: scattered clouds at 2800 feet AGL
scattered clouds at 4800 feet AGL
Weather: no significant weather observed at this time

METAR text: NFFN 230700Z 34010KT 9999 SCT028 SCT048 28/23 Q1011 TEMPO 0800/0900 4000 TSRA FEW018CB
Conditions at: NFFN (NANDI FIJI , FJ) observed 0700 UTC 23 August 2019
Temperature: 28.0°C (82°F)
Dewpoint: 23.0°C (73°F) [RH = 74%]
Pressure (altimeter): 29.85 inches Hg (1011.0 mb)
Winds: from the NNW (340 degrees) at 12 MPH (10 knots; 5.1 m/s)
Visibility: 6 or more miles (10+ km)
Ceiling: at least 12,000 feet AGL
Clouds: scattered clouds at 2800 feet AGL
scattered clouds at 4800 feet AGL
Weather: no significant weather observed at this time

METAR text: NFFN 230600Z 36010KT 9999 SCT029 SCT048 29/23 Q1009 TEMPO 0730/0800 4000 TSRA FEW018CB
Conditions at: NFFN (NANDI FIJI , FJ) observed 0600 UTC 23 August 2019
Temperature: 29.0°C (84°F)
Dewpoint: 23.0°C (73°F) [RH = 70%]
Pressure (altimeter): 29.79 inches Hg (1009.0 mb)
Winds: from the N (360 degrees) at 12 MPH (10 knots; 5.1 m/s)
Visibility: 6 or more miles (10+ km)
Ceiling: at least 12,000 feet AGL
Clouds: scattered clouds at 2900 feet AGL
scattered clouds at 4800 feet AGL
Weather: no significant weather observed at this time

METAR text: NFFN 230500Z 35013KT 9999 FEW029 SCT300 30/22 Q1009 NOSIG
Conditions at: NFFN (NANDI FIJI , FJ) observed 0500 UTC 23 August 2019
Temperature: 30.0°C (86°F)
Dewpoint: 22.0°C (72°F) [RH = 62%]
Pressure (altimeter): 29.79 inches Hg (1009.0 mb)
Winds: from the N (350 degrees) at 15 MPH (13 knots; 6.7 m/s)
Visibility: 6 or more miles (10+ km)
Ceiling: at least 12,000 feet AGL
Clouds: few clouds at 2900 feet AGL
scattered clouds at 30000 feet AGL
Weather: no significant weather observed at this time

METAR text: NFFN 230400Z 35014KT 9999 SCT029 SCT300 31/23 Q1009 TEMPO 35015G25KT
Conditions at: NFFN (NANDI FIJI , FJ) observed 0400 UTC 23 August 2019
Temperature: 31.0°C (88°F)
Dewpoint: 23.0°C (73°F) [RH = 63%]
Pressure (altimeter): 29.79 inches Hg (1009.0 mb)
Winds: from the N (350 degrees) at 16 MPH (14 knots; 7.2 m/s)
Visibility: 6 or more miles (10+ km)
Ceiling: at least 12,000 feet AGL
Clouds: scattered clouds at 2900 feet AGL
scattered clouds at 30000 feet AGL
Weather: no significant weather observed at this time

METAR text: NFFN 230300Z 35015KT 9999 SCT029 SCT300 32/22 Q1009 TEMPO 35015G25KT
Conditions at: NFFN (NANDI FIJI , FJ) observed 0300 UTC 23 August 2019
Temperature: 32.0°C (90°F)
Dewpoint: 22.0°C (72°F) [RH = 56%]
Pressure (altimeter): 29.79 inches Hg (1009.0 mb)
Winds: from the N (350 degrees) at 17 MPH (15 knots; 7.7 m/s)
Visibility: 6 or more miles (10+ km)
Ceiling: at least 12,000 feet AGL
Clouds: scattered clouds at 2900 feet AGL
scattered clouds at 30000 feet AGL
Weather: no significant weather observed at this time

METAR text: NFFN 230200Z 34018KT 9999 SCT030 SCT300 31/22 Q1010 TEMPO 35015G25KT
Conditions at: NFFN (NANDI FIJI , FJ) observed 0200 UTC 23 August 2019
Temperature: 31.0°C (88°F)
Dewpoint: 22.0°C (72°F) [RH = 59%]
Pressure (altimeter): 29.82 inches Hg (1010.0 mb)
Winds: from the NNW (340 degrees) at 21 MPH (18 knots; 9.3 m/s)
Visibility: 6 or more miles (10+ km)
Ceiling: at least 12,000 feet AGL
Clouds: scattered clouds at 3000 feet AGL
scattered clouds at 30000 feet AGL
Weather: no significant weather observed at this time

Forecast for: NFFN (NANDI FIJI , FJ)
Text: TAF NFFN 241105Z 2412/2512 14008KT 9999 SCT028 SCT100
Forecast period: 1200 UTC 24 August 2019 to 1200 UTC 25 August 2019
Forecast type: FROM: standard forecast or significant change
Winds: from the SE (140 degrees) at 9 MPH (8 knots; 4.1 m/s)
Visibility: 6 or more miles 10+ km)
Ceiling: at least 12,000 feet AGL
Clouds: scattered clouds at 2800 feet AGL
scattered clouds at 10000 feet AGL
Weather: no significant weather forecast for this period
Text: PROB40
Forecast period: 2000 UTC 24 August 2019 to 0600 UTC 25 August 2019
Forecast type: TEMPORARY: The following changes expected for less than half the time period
Winds: from the SE (130 degrees) at 17 MPH (15 knots; 7.7 m/s)
gusting to 29 MPH (25 knots; 12.9 m/s)
Visibility: missing
Ceiling: unknown
Clouds: missing
Weather: no significant weather forecast for this period